sensor_id;sensor_type;location;lat;lon;timestamp;P1;durP1;ratioP1;P2;durP2;ratioP2
7693;SDS011;3889;48.162;11.510;2022-09-01T00:00:08;32.03;;;29.05;;
7693;SDS011;3889;48.162;11.510;2022-09-01T00:02:40;33.63;;;30.25;;
7693;SDS011;3889;48.162;11.510;2022-09-01T00:05:10;33.55;;;30.23;;
7693;SDS011;3889;48.162;11.510;2022-09-01T00:07:38;32.90;;;29.67;;
7693;SDS011;3889;48.162;11.510;2022-09-01T00:10:06;33.30;;;29.90;;
7693;SDS011;3889;48.162;11.510;2022-09-01T00:12:35;33.10;;;29.87;;
7693;SDS011;3889;48.162;11.510;2022-09-01T00:15:06;32.72;;;29.48;;
7693;SDS011;3889;48.162;11.510;2022-09-01T00:17:36;32.17;;;29.08;;
7693;SDS011;3889;48.162;11.510;2022-09-01T00:20:06;32.55;;;29.45;;
7693;SDS011;3889;48.162;11.510;2022-09-01T00:22:35;33.17;;;29.98;;
7693;SDS011;3889;48.162;11.510;2022-09-01T00:25:03;34.63;;;31.23;;
7693;SDS011;3889;48.162;11.510;2022-09-01T00:27:33;33.97;;;30.67;;
7693;SDS011;3889;48.162;11.510;2022-09-01T00:30:02;33.53;;;30.23;;
7693;SDS011;3889;48.162;11.510;2022-09-01T00:32:30;35.58;;;31.92;;
7693;SDS011;3889;48.162;11.510;2022-09-01T00:34:58;33.22;;;29.92;;
7693;SDS011;3889;48.162;11.510;2022-09-01T00:37:28;35.47;;;32.00;;
7693;SDS011;3889;48.162;11.510;2022-09-01T00:39:56;35.42;;;32.03;;
7693;SDS011;3889;48.162;11.510;2022-09-01T00:42:23;33.88;;;30.50;;
7693;SDS011;3889;48.162;11.510;2022-09-01T00:44:52;33.77;;;30.47;;
7693;SDS011;3889;48.162;11.510;2022-09-01T00:47:20;34.23;;;31.03;;
7693;SDS011;3889;48.162;11.510;2022-09-01T00:49:48;34.80;;;31.50;;
7693;SDS011;3889;48.162;11.510;2022-09-01T00:52:18;35.83;;;32.15;;
7693;SDS011;3889;48.162;11.510;2022-09-01T00:54:51;33.65;;;30.35;;
7693;SDS011;3889;48.162;11.510;2022-09-01T00:57:23;35.10;;;31.63;;
7693;SDS011;3889;48.162;11.510;2022-09-01T00:59:54;34.08;;;30.77;;
7693;SDS011;3889;48.162;11.510;2022-09-01T01:02:24;34.25;;;30.85;;
7693;SDS011;3889;48.162;11.510;2022-09-01T01:04:53;34.33;;;30.97;;
7693;SDS011;3889;48.162;11.510;2022-09-01T01:07:25;35.08;;;31.70;;
7693;SDS011;3889;48.162;11.510;2022-09-01T01:09:55;35.80;;;32.30;;
7693;SDS011;3889;48.162;11.510;2022-09-01T01:12:24;35.42;;;32.03;;
7693;SDS011;3889;48.162;11.510;2022-09-01T01:14:52;35.13;;;31.65;;
7693;SDS011;3889;48.162;11.510;2022-09-01T01:17:22;37.40;;;33.70;;
7693;SDS011;3889;48.162;11.510;2022-09-01T01:19:50;36.15;;;32.53;;
7693;SDS011;3889;48.162;11.510;2022-09-01T01:22:40;36.08;;;32.53;;
7693;SDS011;3889;48.162;11.510;2022-09-01T01:25:33;35.15;;;31.73;;
7693;SDS011;3889;48.162;11.510;2022-09-01T01:28:05;36.70;;;33.10;;
7693;SDS011;3889;48.162;11.510;2022-09-01T01:30:36;35.65;;;32.22;;
7693;SDS011;3889;48.162;11.510;2022-09-01T01:33:05;35.97;;;32.47;;
7693;SDS011;3889;48.162;11.510;2022-09-01T01:35:33;37.20;;;33.55;;
7693;SDS011;3889;48.162;11.510;2022-09-01T01:38:02;34.38;;;31.08;;
7693;SDS011;3889;48.162;11.510;2022-09-01T01:40:34;36.10;;;32.60;;
7693;SDS011;3889;48.162;11.510;2022-09-01T01:43:04;35.25;;;31.75;;
7693;SDS011;3889;48.162;11.510;2022-09-01T01:45:32;35.53;;;32.05;;
7693;SDS011;3889;48.162;11.510;2022-09-01T01:48:01;35.65;;;32.28;;
7693;SDS011;3889;48.162;11.510;2022-09-01T01:50:31;35.97;;;32.50;;
7693;SDS011;3889;48.162;11.510;2022-09-01T01:53:01;35.60;;;31.98;;
7693;SDS011;3889;48.162;11.510;2022-09-01T01:55:38;35.15;;;31.75;;
7693;SDS011;3889;48.162;11.510;2022-09-01T01:58:06;35.35;;;31.95;;
7693;SDS011;3889;48.162;11.510;2022-09-01T02:00:37;34.92;;;31.58;;
7693;SDS011;3889;48.162;11.510;2022-09-01T02:03:07;36.10;;;32.53;;
7693;SDS011;3889;48.162;11.510;2022-09-01T02:05:38;34.50;;;30.97;;
7693;SDS011;3889;48.162;11.510;2022-09-01T02:08:07;35.28;;;31.88;;
7693;SDS011;3889;48.162;11.510;2022-09-01T02:10:39;32.25;;;29.15;;
7693;SDS011;3889;48.162;11.510;2022-09-01T02:13:09;32.80;;;29.60;;
7693;SDS011;3889;48.162;11.510;2022-09-01T02:15:42;33.35;;;30.05;;
7693;SDS011;3889;48.162;11.510;2022-09-01T02:18:11;30.67;;;27.83;;
7693;SDS011;3889;48.162;11.510;2022-09-01T02:20:41;31.87;;;28.87;;
7693;SDS011;3889;48.162;11.510;2022-09-01T02:23:10;32.15;;;29.10;;
7693;SDS011;3889;48.162;11.510;2022-09-01T02:25:42;31.67;;;28.63;;
7693;SDS011;3889;48.162;11.510;2022-09-01T02:28:32;34.43;;;31.13;;
7693;SDS011;3889;48.162;11.510;2022-09-01T02:31:02;35.50;;;32.10;;
7693;SDS011;3889;48.162;11.510;2022-09-01T02:33:34;32.33;;;29.23;;
7693;SDS011;3889;48.162;11.510;2022-09-01T02:36:04;34.03;;;30.80;;
7693;SDS011;3889;48.162;11.510;2022-09-01T02:38:34;35.95;;;32.35;;
7693;SDS011;3889;48.162;11.510;2022-09-01T02:41:05;34.40;;;31.05;;
7693;SDS011;3889;48.162;11.510;2022-09-01T02:43:33;34.45;;;31.00;;
7693;SDS011;3889;48.162;11.510;2022-09-01T02:46:03;35.55;;;31.95;;
7693;SDS011;3889;48.162;11.510;2022-09-01T02:48:32;33.80;;;30.42;;
7693;SDS011;3889;48.162;11.510;2022-09-01T02:51:04;35.55;;;32.22;;
7693;SDS011;3889;48.162;11.510;2022-09-01T02:53:33;33.53;;;30.25;;
7693;SDS011;3889;48.162;11.510;2022-09-01T02:56:07;34.60;;;31.35;;
7693;SDS011;3889;48.162;11.510;2022-09-01T02:58:37;34.78;;;31.38;;
7693;SDS011;3889;48.162;11.510;2022-09-01T03:01:11;35.85;;;32.30;;
7693;SDS011;3889;48.162;11.510;2022-09-01T03:03:42;32.73;;;29.60;;
7693;SDS011;3889;48.162;11.510;2022-09-01T03:06:10;33.70;;;30.40;;
7693;SDS011;3889;48.162;11.510;2022-09-01T03:08:38;32.72;;;29.52;;
7693;SDS011;3889;48.162;11.510;2022-09-01T03:11:07;32.53;;;29.42;;
7693;SDS011;3889;48.162;11.510;2022-09-01T03:13:38;33.50;;;30.30;;
7693;SDS011;3889;48.162;11.510;2022-09-01T03:16:08;33.55;;;30.35;;
7693;SDS011;3889;48.162;11.510;2022-09-01T03:18:37;31.88;;;28.83;;
7693;SDS011;3889;48.162;11.510;2022-09-01T03:21:05;33.45;;;30.08;;
7693;SDS011;3889;48.162;11.510;2022-09-01T03:23:34;33.28;;;30.17;;
7693;SDS011;3889;48.162;11.510;2022-09-01T03:26:03;32.20;;;29.10;;
7693;SDS011;3889;48.162;11.510;2022-09-01T03:28:34;33.33;;;30.23;;
7693;SDS011;3889;48.162;11.510;2022-09-01T03:31:03;33.63;;;30.23;;
7693;SDS011;3889;48.162;11.510;2022-09-01T03:33:31;33.92;;;30.67;;
7693;SDS011;3889;48.162;11.510;2022-09-01T03:36:01;30.42;;;27.42;;
7693;SDS011;3889;48.162;11.510;2022-09-01T03:38:40;33.78;;;30.58;;
7693;SDS011;3889;48.162;11.510;2022-09-01T03:41:09;32.40;;;29.30;;
7693;SDS011;3889;48.162;11.510;2022-09-01T03:43:39;32.95;;;29.80;;
7693;SDS011;3889;48.162;11.510;2022-09-01T03:46:14;33.42;;;30.13;;
7693;SDS011;3889;48.162;11.510;2022-09-01T03:48:45;34.15;;;30.77;;
7693;SDS011;3889;48.162;11.510;2022-09-01T03:51:16;33.78;;;30.58;;
7693;SDS011;3889;48.162;11.510;2022-09-01T03:53:45;32.97;;;29.67;;
7693;SDS011;3889;48.162;11.510;2022-09-01T03:56:14;34.05;;;30.67;;
7693;SDS011;3889;48.162;11.510;2022-09-01T03:58:43;34.00;;;30.63;;
7693;SDS011;3889;48.162;11.510;2022-09-01T04:01:13;34.45;;;31.10;;
7693;SDS011;3889;48.162;11.510;2022-09-01T04:03:41;34.78;;;31.40;;
7693;SDS011;3889;48.162;11.510;2022-09-01T04:06:14;33.27;;;30.07;;
7693;SDS011;3889;48.162;11.510;2022-09-01T04:08:45;33.75;;;30.63;;
7693;SDS011;3889;48.162;11.510;2022-09-01T04:11:14;34.28;;;30.85;;
7693;SDS011;3889;48.162;11.510;2022-09-01T04:13:50;32.72;;;29.52;;
7693;SDS011;3889;48.162;11.510;2022-09-01T04:16:19;33.60;;;30.40;;
7693;SDS011;3889;48.162;11.510;2022-09-01T04:19:07;34.25;;;30.98;;
7693;SDS011;3889;48.162;11.510;2022-09-01T04:21:45;33.45;;;30.23;;
7693;SDS011;3889;48.162;11.510;2022-09-01T04:24:16;34.20;;;30.80;;
7693;SDS011;3889;48.162;11.510;2022-09-01T04:26:45;34.70;;;31.20;;
7693;SDS011;3889;48.162;11.510;2022-09-01T04:29:16;36.03;;;32.53;;
7693;SDS011;3889;48.162;11.510;2022-09-01T04:31:45;36.00;;;32.45;;
7693;SDS011;3889;48.162;11.510;2022-09-01T04:34:18;34.00;;;30.70;;
7693;SDS011;3889;48.162;11.510;2022-09-01T04:36:47;33.75;;;30.50;;
7693;SDS011;3889;48.162;11.510;2022-09-01T04:39:22;33.63;;;30.42;;
7693;SDS011;3889;48.162;11.510;2022-09-01T04:41:50;33.85;;;30.63;;
7693;SDS011;3889;48.162;11.510;2022-09-01T04:44:20;32.92;;;29.83;;
7693;SDS011;3889;48.162;11.510;2022-09-01T04:46:48;32.72;;;29.58;;
7693;SDS011;3889;48.162;11.510;2022-09-01T04:49:17;32.88;;;29.70;;
7693;SDS011;3889;48.162;11.510;2022-09-01T04:51:47;33.20;;;30.02;;
7693;SDS011;3889;48.162;11.510;2022-09-01T04:54:19;33.80;;;30.60;;
7693;SDS011;3889;48.162;11.510;2022-09-01T04:56:49;32.35;;;29.25;;
7693;SDS011;3889;48.162;11.510;2022-09-01T04:59:22;33.03;;;29.83;;
7693;SDS011;3889;48.162;11.510;2022-09-01T05:01:52;32.13;;;29.13;;
7693;SDS011;3889;48.162;11.510;2022-09-01T05:04:21;31.40;;;28.33;;
7693;SDS011;3889;48.162;11.510;2022-09-01T05:06:53;33.17;;;29.65;;
7693;SDS011;3889;48.162;11.510;2022-09-01T05:09:25;31.70;;;28.70;;
7693;SDS011;3889;48.162;11.510;2022-09-01T05:11:54;31.33;;;28.33;;
7693;SDS011;3889;48.162;11.510;2022-09-01T05:14:24;30.55;;;27.67;;
7693;SDS011;3889;48.162;11.510;2022-09-01T05:16:54;31.38;;;28.40;;
7693;SDS011;3889;48.162;11.510;2022-09-01T05:19:23;32.80;;;29.70;;
7693;SDS011;3889;48.162;11.510;2022-09-01T05:21:54;31.23;;;28.27;;
7693;SDS011;3889;48.162;11.510;2022-09-01T05:24:23;31.85;;;28.85;;
7693;SDS011;3889;48.162;11.510;2022-09-01T05:27:06;32.90;;;29.80;;
7693;SDS011;3889;48.162;11.510;2022-09-01T05:29:37;32.40;;;29.38;;
7693;SDS011;3889;48.162;11.510;2022-09-01T05:32:07;32.03;;;29.03;;
7693;SDS011;3889;48.162;11.510;2022-09-01T05:34:35;34.13;;;30.80;;
7693;SDS011;3889;48.162;11.510;2022-09-01T05:37:05;33.33;;;30.33;;
7693;SDS011;3889;48.162;11.510;2022-09-01T05:39:35;33.42;;;30.25;;
7693;SDS011;3889;48.162;11.510;2022-09-01T05:42:03;32.97;;;29.83;;
7693;SDS011;3889;48.162;11.510;2022-09-01T05:44:33;34.60;;;31.30;;
7693;SDS011;3889;48.162;11.510;2022-09-01T05:47:02;32.35;;;29.15;;
7693;SDS011;3889;48.162;11.510;2022-09-01T05:49:31;30.90;;;28.05;;
7693;SDS011;3889;48.162;11.510;2022-09-01T05:51:59;27.33;;;24.90;;
7693;SDS011;3889;48.162;11.510;2022-09-01T05:54:28;27.08;;;24.63;;
7693;SDS011;3889;48.162;11.510;2022-09-01T05:56:57;27.00;;;24.42;;
7693;SDS011;3889;48.162;11.510;2022-09-01T05:59:46;22.67;;;20.67;;
7693;SDS011;3889;48.162;11.510;2022-09-01T06:02:20;22.58;;;20.45;;
7693;SDS011;3889;48.162;11.510;2022-09-01T06:04:49;22.65;;;20.45;;
7693;SDS011;3889;48.162;11.510;2022-09-01T06:07:22;20.38;;;18.48;;
7693;SDS011;3889;48.162;11.510;2022-09-01T06:09:53;19.37;;;17.57;;
7693;SDS011;3889;48.162;11.510;2022-09-01T06:12:22;17.58;;;16.02;;
7693;SDS011;3889;48.162;11.510;2022-09-01T06:14:51;18.48;;;16.88;;
7693;SDS011;3889;48.162;11.510;2022-09-01T06:17:21;19.05;;;17.25;;
7693;SDS011;3889;48.162;11.510;2022-09-01T06:19:52;19.42;;;17.73;;
7693;SDS011;3889;48.162;11.510;2022-09-01T06:22:21;19.63;;;17.90;;
7693;SDS011;3889;48.162;11.510;2022-09-01T06:24:50;21.23;;;19.17;;
7693;SDS011;3889;48.162;11.510;2022-09-01T06:27:27;21.17;;;19.17;;
7693;SDS011;3889;48.162;11.510;2022-09-01T06:29:55;20.35;;;18.45;;
7693;SDS011;3889;48.162;11.510;2022-09-01T06:32:24;19.00;;;17.30;;
7693;SDS011;3889;48.162;11.510;2022-09-01T06:34:53;17.63;;;15.98;;
7693;SDS011;3889;48.162;11.510;2022-09-01T06:37:23;18.17;;;16.52;;
7693;SDS011;3889;48.162;11.510;2022-09-01T06:39:54;18.27;;;16.58;;
7693;SDS011;3889;48.162;11.510;2022-09-01T06:42:22;18.17;;;16.38;;
7693;SDS011;3889;48.162;11.510;2022-09-01T06:44:51;17.63;;;16.02;;
7693;SDS011;3889;48.162;11.510;2022-09-01T06:47:19;17.98;;;16.27;;
7693;SDS011;3889;48.162;11.510;2022-09-01T06:49:48;16.73;;;15.13;;
7693;SDS011;3889;48.162;11.510;2022-09-01T06:52:23;17.83;;;16.23;;
7693;SDS011;3889;48.162;11.510;2022-09-01T06:54:51;17.13;;;15.50;;
7693;SDS011;3889;48.162;11.510;2022-09-01T06:57:20;17.77;;;16.17;;
7693;SDS011;3889;48.162;11.510;2022-09-01T07:00:10;20.13;;;18.13;;
7693;SDS011;3889;48.162;11.510;2022-09-01T07:02:44;21.70;;;19.60;;
7693;SDS011;3889;48.162;11.510;2022-09-01T07:05:14;17.58;;;15.88;;
7693;SDS011;3889;48.162;11.510;2022-09-01T07:08:06;17.60;;;15.93;;
7693;SDS011;3889;48.162;11.510;2022-09-01T07:10:39;18.38;;;16.58;;
7693;SDS011;3889;48.162;11.510;2022-09-01T07:13:30;19.30;;;17.50;;
7693;SDS011;3889;48.162;11.510;2022-09-01T07:16:00;21.42;;;19.27;;
7693;SDS011;3889;48.162;11.510;2022-09-01T07:18:49;19.05;;;17.27;;
7693;SDS011;3889;48.162;11.510;2022-09-01T07:21:27;18.45;;;16.85;;
7693;SDS011;3889;48.162;11.510;2022-09-01T07:24:18;17.88;;;16.27;;
7693;SDS011;3889;48.162;11.510;2022-09-01T07:26:46;17.65;;;15.95;;
7693;SDS011;3889;48.162;11.510;2022-09-01T07:29:16;16.67;;;15.18;;
7693;SDS011;3889;48.162;11.510;2022-09-01T07:31:46;16.50;;;14.98;;
7693;SDS011;3889;48.162;11.510;2022-09-01T07:34:35;15.43;;;13.98;;
7693;SDS011;3889;48.162;11.510;2022-09-01T07:37:06;14.55;;;13.15;;
7693;SDS011;3889;48.162;11.510;2022-09-01T07:39:54;14.00;;;12.70;;
7693;SDS011;3889;48.162;11.510;2022-09-01T07:42:22;13.25;;;12.05;;
7693;SDS011;3889;48.162;11.510;2022-09-01T07:45:12;14.10;;;12.80;;
7693;SDS011;3889;48.162;11.510;2022-09-01T07:47:57;14.23;;;13.02;;
7693;SDS011;3889;48.162;11.510;2022-09-01T07:50:28;13.88;;;12.68;;
7693;SDS011;3889;48.162;11.510;2022-09-01T07:53:18;14.95;;;13.55;;
7693;SDS011;3889;48.162;11.510;2022-09-01T07:55:48;14.23;;;13.03;;
7693;SDS011;3889;48.162;11.510;2022-09-01T07:58:17;14.60;;;13.20;;
7693;SDS011;3889;48.162;11.510;2022-09-01T08:00:47;12.95;;;11.82;;
7693;SDS011;3889;48.162;11.510;2022-09-01T08:03:17;12.40;;;11.30;;
7693;SDS011;3889;48.162;11.510;2022-09-01T08:05:46;11.90;;;10.90;;
7693;SDS011;3889;48.162;11.510;2022-09-01T08:08:20;12.23;;;11.10;;
7693;SDS011;3889;48.162;11.510;2022-09-01T08:10:54;11.60;;;10.60;;
7693;SDS011;3889;48.162;11.510;2022-09-01T08:13:30;12.20;;;11.13;;
7693;SDS011;3889;48.162;11.510;2022-09-01T08:16:06;12.20;;;11.00;;
7693;SDS011;3889;48.162;11.510;2022-09-01T08:18:43;11.77;;;10.68;;
7693;SDS011;3889;48.162;11.510;2022-09-01T08:21:14;10.40;;;9.60;;
7693;SDS011;3889;48.162;11.510;2022-09-01T08:23:44;10.02;;;9.13;;
7693;SDS011;3889;48.162;11.510;2022-09-01T08:26:13;9.95;;;8.95;;
7693;SDS011;3889;48.162;11.510;2022-09-01T08:28:42;10.17;;;9.07;;
7693;SDS011;3889;48.162;11.510;2022-09-01T08:31:12;10.52;;;9.50;;
7693;SDS011;3889;48.162;11.510;2022-09-01T08:33:43;9.77;;;8.98;;
7693;SDS011;3889;48.162;11.510;2022-09-01T08:36:12;10.27;;;9.30;;
7693;SDS011;3889;48.162;11.510;2022-09-01T08:38:50;10.13;;;9.32;;
7693;SDS011;3889;48.162;11.510;2022-09-01T08:41:19;10.25;;;9.35;;
7693;SDS011;3889;48.162;11.510;2022-09-01T08:44:02;10.00;;;9.20;;
7693;SDS011;3889;48.162;11.510;2022-09-01T08:46:36;10.27;;;9.38;;
7693;SDS011;3889;48.162;11.510;2022-09-01T08:49:08;10.80;;;9.88;;
7693;SDS011;3889;48.162;11.510;2022-09-01T08:51:51;10.50;;;9.60;;
7693;SDS011;3889;48.162;11.510;2022-09-01T08:54:25;10.18;;;9.27;;
7693;SDS011;3889;48.162;11.510;2022-09-01T08:56:59;10.25;;;9.35;;
7693;SDS011;3889;48.162;11.510;2022-09-01T08:59:31;10.00;;;9.10;;
7693;SDS011;3889;48.162;11.510;2022-09-01T09:02:01;11.35;;;10.23;;
7693;SDS011;3889;48.162;11.510;2022-09-01T09:04:46;10.07;;;9.27;;
7693;SDS011;3889;48.162;11.510;2022-09-01T09:07:28;9.50;;;8.70;;
7693;SDS011;3889;48.162;11.510;2022-09-01T09:10:09;9.55;;;8.75;;
7693;SDS011;3889;48.162;11.510;2022-09-01T09:12:47;10.00;;;9.10;;
7693;SDS011;3889;48.162;11.510;2022-09-01T09:15:25;10.50;;;9.02;;
7693;SDS011;3889;48.162;11.510;2022-09-01T09:18:05;9.98;;;9.07;;
7693;SDS011;3889;48.162;11.510;2022-09-01T09:21:04;9.80;;;8.80;;
7693;SDS011;3889;48.162;11.510;2022-09-01T09:23:38;10.87;;;9.87;;
7693;SDS011;3889;48.162;11.510;2022-09-01T09:26:13;11.70;;;10.50;;
7693;SDS011;3889;48.162;11.510;2022-09-01T09:28:48;12.35;;;11.20;;
7693;SDS011;3889;48.162;11.510;2022-09-01T09:31:28;10.35;;;9.32;;
7693;SDS011;3889;48.162;11.510;2022-09-01T09:34:00;10.77;;;9.77;;
7693;SDS011;3889;48.162;11.510;2022-09-01T09:36:30;10.63;;;9.53;;
7693;SDS011;3889;48.162;11.510;2022-09-01T09:39:05;10.27;;;9.30;;
7693;SDS011;3889;48.162;11.510;2022-09-01T09:41:37;10.38;;;9.38;;
7693;SDS011;3889;48.162;11.510;2022-09-01T09:44:16;10.32;;;9.38;;
7693;SDS011;3889;48.162;11.510;2022-09-01T09:46:48;11.40;;;10.40;;
7693;SDS011;3889;48.162;11.510;2022-09-01T09:49:17;10.13;;;9.23;;
7693;SDS011;3889;48.162;11.510;2022-09-01T09:52:13;10.15;;;9.15;;
7693;SDS011;3889;48.162;11.510;2022-09-01T09:55:00;10.85;;;9.85;;
7693;SDS011;3889;48.162;11.510;2022-09-01T09:57:31;11.80;;;10.70;;
7693;SDS011;3889;48.162;11.510;2022-09-01T10:00:09;10.95;;;10.05;;
7693;SDS011;3889;48.162;11.510;2022-09-01T10:02:54;11.52;;;10.43;;
7693;SDS011;3889;48.162;11.510;2022-09-01T10:05:34;11.50;;;10.32;;
7693;SDS011;3889;48.162;11.510;2022-09-01T10:08:05;11.98;;;10.85;;
7693;SDS011;3889;48.162;11.510;2022-09-01T10:10:36;11.73;;;10.65;;
7693;SDS011;3889;48.162;11.510;2022-09-01T10:13:09;10.27;;;9.27;;
7693;SDS011;3889;48.162;11.510;2022-09-01T10:15:40;10.00;;;9.00;;
7693;SDS011;3889;48.162;11.510;2022-09-01T10:18:17;8.05;;;7.25;;
7693;SDS011;3889;48.162;11.510;2022-09-01T10:20:55;7.88;;;7.07;;
7693;SDS011;3889;48.162;11.510;2022-09-01T10:23:27;8.02;;;7.25;;
7693;SDS011;3889;48.162;11.510;2022-09-01T10:25:59;7.28;;;6.18;;
7693;SDS011;3889;48.162;11.510;2022-09-01T10:28:33;8.65;;;7.72;;
7693;SDS011;3889;48.162;11.510;2022-09-01T10:31:16;5.85;;;5.35;;
7693;SDS011;3889;48.162;11.510;2022-09-01T10:33:45;5.70;;;5.20;;
7693;SDS011;3889;48.162;11.510;2022-09-01T10:36:13;5.87;;;5.23;;
7693;SDS011;3889;48.162;11.510;2022-09-01T10:38:43;6.53;;;5.82;;
7693;SDS011;3889;48.162;11.510;2022-09-01T10:41:42;6.97;;;5.25;;
7693;SDS011;3889;48.162;11.510;2022-09-01T10:44:27;5.70;;;5.03;;
7693;SDS011;3889;48.162;11.510;2022-09-01T10:47:02;6.45;;;5.20;;
7693;SDS011;3889;48.162;11.510;2022-09-01T10:55:33;4.57;;;4.18;;
7693;SDS011;3889;48.162;11.510;2022-09-01T11:07:45;3.38;;;3.05;;
7693;SDS011;3889;48.162;11.510;2022-09-01T11:10:36;3.90;;;3.40;;
7693;SDS011;3889;48.162;11.510;2022-09-01T11:13:27;4.47;;;3.47;;
7693;SDS011;3889;48.162;11.510;2022-09-01T11:19:31;3.15;;;2.80;;
7693;SDS011;3889;48.162;11.510;2022-09-01T11:25:09;3.45;;;3.15;;
7693;SDS011;3889;48.162;11.510;2022-09-01T11:31:23;3.87;;;3.40;;
7693;SDS011;3889;48.162;11.510;2022-09-01T11:34:09;3.30;;;3.00;;
7693;SDS011;3889;48.162;11.510;2022-09-01T11:36:48;4.05;;;2.80;;
7693;SDS011;3889;48.162;11.510;2022-09-01T11:39:31;2.80;;;2.60;;
7693;SDS011;3889;48.162;11.510;2022-09-01T11:42:07;2.60;;;2.40;;
7693;SDS011;3889;48.162;11.510;2022-09-01T11:44:41;2.45;;;2.25;;
7693;SDS011;3889;48.162;11.510;2022-09-01T11:47:14;4.18;;;2.47;;
7693;SDS011;3889;48.162;11.510;2022-09-01T11:49:47;3.70;;;2.42;;
7693;SDS011;3889;48.162;11.510;2022-09-01T11:52:18;2.92;;;2.63;;
7693;SDS011;3889;48.162;11.510;2022-09-01T11:54:49;2.90;;;2.40;;
7693;SDS011;3889;48.162;11.510;2022-09-01T11:57:21;2.88;;;2.33;;
7693;SDS011;3889;48.162;11.510;2022-09-01T11:59:54;3.03;;;2.37;;
7693;SDS011;3889;48.162;11.510;2022-09-01T12:02:23;3.00;;;2.40;;
7693;SDS011;3889;48.162;11.510;2022-09-01T12:04:53;2.70;;;2.10;;
7693;SDS011;3889;48.162;11.510;2022-09-01T12:07:26;2.85;;;2.13;;
7693;SDS011;3889;48.162;11.510;2022-09-01T12:10:01;2.85;;;2.55;;
7693;SDS011;3889;48.162;11.510;2022-09-01T12:12:31;2.38;;;2.17;;
7693;SDS011;3889;48.162;11.510;2022-09-01T12:15:02;2.92;;;2.00;;
7693;SDS011;3889;48.162;11.510;2022-09-01T12:17:32;2.30;;;2.10;;
7693;SDS011;3889;48.162;11.510;2022-09-01T12:20:17;4.40;;;2.58;;
7693;SDS011;3889;48.162;11.510;2022-09-01T12:22:51;3.80;;;2.60;;
7693;SDS011;3889;48.162;11.510;2022-09-01T12:25:22;5.78;;;2.60;;
7693;SDS011;3889;48.162;11.510;2022-09-01T12:27:52;3.15;;;2.63;;
7693;SDS011;3889;48.162;11.510;2022-09-01T12:30:24;3.22;;;2.42;;
7693;SDS011;3889;48.162;11.510;2022-09-01T12:32:52;4.07;;;2.80;;
7693;SDS011;3889;48.162;11.510;2022-09-01T12:35:42;3.28;;;2.92;;
7693;SDS011;3889;48.162;11.510;2022-09-01T12:38:27;5.45;;;3.00;;
7693;SDS011;3889;48.162;11.510;2022-09-01T12:40:58;4.75;;;2.90;;
7693;SDS011;3889;48.162;11.510;2022-09-01T12:43:26;3.10;;;2.80;;
7693;SDS011;3889;48.162;11.510;2022-09-01T12:45:56;4.03;;;2.90;;
7693;SDS011;3889;48.162;11.510;2022-09-01T12:48:26;4.15;;;2.80;;
7693;SDS011;3889;48.162;11.510;2022-09-01T12:50:56;5.32;;;2.83;;
7693;SDS011;3889;48.162;11.510;2022-09-01T12:53:26;4.18;;;2.78;;
7693;SDS011;3889;48.162;11.510;2022-09-01T12:56:03;4.38;;;2.75;;
7693;SDS011;3889;48.162;11.510;2022-09-01T12:58:32;2.80;;;2.50;;
7693;SDS011;3889;48.162;11.510;2022-09-01T13:01:02;3.00;;;2.60;;
7693;SDS011;3889;48.162;11.510;2022-09-01T13:03:42;5.40;;;2.72;;
7693;SDS011;3889;48.162;11.510;2022-09-01T13:06:33;3.50;;;2.90;;
7693;SDS011;3889;48.162;11.510;2022-09-01T13:09:02;3.50;;;2.50;;
7693;SDS011;3889;48.162;11.510;2022-09-01T13:11:31;4.30;;;3.40;;
7693;SDS011;3889;48.162;11.510;2022-09-01T13:14:19;3.90;;;2.33;;
7693;SDS011;3889;48.162;11.510;2022-09-01T13:16:50;3.47;;;2.47;;
7693;SDS011;3889;48.162;11.510;2022-09-01T13:19:18;2.80;;;2.33;;
7693;SDS011;3889;48.162;11.510;2022-09-01T13:21:54;3.50;;;2.60;;
7693;SDS011;3889;48.162;11.510;2022-09-01T13:24:21;3.60;;;2.60;;
7693;SDS011;3889;48.162;11.510;2022-09-01T13:26:56;3.13;;;2.60;;
7693;SDS011;3889;48.162;11.510;2022-09-01T13:29:44;3.42;;;2.60;;
7693;SDS011;3889;48.162;11.510;2022-09-01T13:32:12;2.38;;;2.17;;
7693;SDS011;3889;48.162;11.510;2022-09-01T13:34:45;3.05;;;2.40;;
7693;SDS011;3889;48.162;11.510;2022-09-01T13:37:15;2.65;;;2.08;;
7693;SDS011;3889;48.162;11.510;2022-09-01T13:39:43;3.22;;;2.38;;
7693;SDS011;3889;48.162;11.510;2022-09-01T13:42:13;3.22;;;2.35;;
7693;SDS011;3889;48.162;11.510;2022-09-01T13:44:42;2.45;;;1.90;;
7693;SDS011;3889;48.162;11.510;2022-09-01T13:47:12;2.63;;;2.30;;
7693;SDS011;3889;48.162;11.510;2022-09-01T13:49:56;2.80;;;2.00;;
7693;SDS011;3889;48.162;11.510;2022-09-01T13:52:36;2.80;;;2.30;;
7693;SDS011;3889;48.162;11.510;2022-09-01T13:55:05;3.38;;;2.63;;
7693;SDS011;3889;48.162;11.510;2022-09-01T13:57:37;2.92;;;2.55;;
7693;SDS011;3889;48.162;11.510;2022-09-01T14:00:06;4.90;;;2.97;;
7693;SDS011;3889;48.162;11.510;2022-09-01T14:02:37;4.50;;;3.00;;
7693;SDS011;3889;48.162;11.510;2022-09-01T14:05:06;3.45;;;2.53;;
7693;SDS011;3889;48.162;11.510;2022-09-01T14:07:34;4.32;;;3.10;;
7693;SDS011;3889;48.162;11.510;2022-09-01T14:10:03;2.67;;;2.40;;
7693;SDS011;3889;48.162;11.510;2022-09-01T14:12:32;2.47;;;2.22;;
7693;SDS011;3889;48.162;11.510;2022-09-01T14:15:02;2.38;;;2.17;;
7693;SDS011;3889;48.162;11.510;2022-09-01T14:17:42;3.55;;;2.05;;
7693;SDS011;3889;48.162;11.510;2022-09-01T14:20:11;2.40;;;2.20;;
7693;SDS011;3889;48.162;11.510;2022-09-01T14:22:41;3.92;;;2.05;;
7693;SDS011;3889;48.162;11.510;2022-09-01T14:25:09;3.10;;;2.20;;
7693;SDS011;3889;48.162;11.510;2022-09-01T14:27:38;3.10;;;2.53;;
7693;SDS011;3889;48.162;11.510;2022-09-01T14:30:12;2.85;;;2.50;;
7693;SDS011;3889;48.162;11.510;2022-09-01T14:32:42;3.42;;;2.42;;
7693;SDS011;3889;48.162;11.510;2022-09-01T14:35:10;2.40;;;2.20;;
7693;SDS011;3889;48.162;11.510;2022-09-01T14:37:38;3.05;;;2.40;;
7693;SDS011;3889;48.162;11.510;2022-09-01T14:40:08;2.65;;;2.38;;
7693;SDS011;3889;48.162;11.510;2022-09-01T14:42:42;3.50;;;2.40;;
7693;SDS011;3889;48.162;11.510;2022-09-01T14:45:15;3.65;;;2.70;;
7693;SDS011;3889;48.162;11.510;2022-09-01T14:47:44;3.20;;;2.30;;
7693;SDS011;3889;48.162;11.510;2022-09-01T14:50:13;2.95;;;2.42;;
7693;SDS011;3889;48.162;11.510;2022-09-01T14:52:48;3.33;;;2.17;;
7693;SDS011;3889;48.162;11.510;2022-09-01T14:55:18;2.22;;;2.03;;
7693;SDS011;3889;48.162;11.510;2022-09-01T14:57:47;2.63;;;2.20;;
7693;SDS011;3889;48.162;11.510;2022-09-01T15:00:16;4.20;;;2.10;;
7693;SDS011;3889;48.162;11.510;2022-09-01T15:02:45;2.53;;;2.22;;
7693;SDS011;3889;48.162;11.510;2022-09-01T15:05:13;2.70;;;1.70;;
7693;SDS011;3889;48.162;11.510;2022-09-01T15:07:42;2.38;;;1.80;;
7693;SDS011;3889;48.162;11.510;2022-09-01T15:10:11;2.40;;;1.90;;
7693;SDS011;3889;48.162;11.510;2022-09-01T15:12:50;2.83;;;1.80;;
7693;SDS011;3889;48.162;11.510;2022-09-01T15:15:21;2.03;;;1.70;;
7693;SDS011;3889;48.162;11.510;2022-09-01T15:17:49;2.38;;;1.90;;
7693;SDS011;3889;48.162;11.510;2022-09-01T15:20:17;1.90;;;1.70;;
7693;SDS011;3889;48.162;11.510;2022-09-01T15:23:03;3.50;;;2.53;;
7693;SDS011;3889;48.162;11.510;2022-09-01T15:25:32;3.78;;;2.72;;
7693;SDS011;3889;48.162;11.510;2022-09-01T15:28:00;2.47;;;2.05;;
7693;SDS011;3889;48.162;11.510;2022-09-01T15:30:29;2.40;;;2.20;;
7693;SDS011;3889;48.162;11.510;2022-09-01T15:32:57;2.50;;;2.03;;
7693;SDS011;3889;48.162;11.510;2022-09-01T15:35:26;5.40;;;3.75;;
7693;SDS011;3889;48.162;11.510;2022-09-01T15:37:54;2.55;;;2.08;;
7693;SDS011;3889;48.162;11.510;2022-09-01T15:40:23;3.10;;;1.90;;
7693;SDS011;3889;48.162;11.510;2022-09-01T15:42:52;3.97;;;1.90;;